createdAt,value
2023-02-18T00:02:31.816Z,99386.63
2023-02-18T00:05:34.624Z,99373.09
2023-02-18T00:08:38.897Z,99370.59
2023-02-18T00:11:41.759Z,99365.63
2023-02-18T00:14:44.612Z,99354.84
2023-02-18T00:17:47.416Z,99354.34
2023-02-18T00:20:50.190Z,99348.56
2023-02-18T00:23:54.579Z,99339.16
2023-02-18T00:26:57.410Z,99337.47
2023-02-18T00:30:00.479Z,99322.50
2023-02-18T00:33:03.316Z,99326.47
2023-02-18T00:36:07.391Z,99316.78
2023-02-18T00:39:12.224Z,99310.44
2023-02-18T00:42:15.201Z,99303.41
2023-02-18T00:45:18.192Z,99301.63
2023-02-18T00:48:21.275Z,99290.44
2023-02-18T00:51:25.426Z,99290.88
2023-02-18T00:54:29.568Z,99287.91
2023-02-18T00:57:32.477Z,99269.69
2023-02-18T01:00:35.493Z,99259.16
2023-02-18T01:03:38.638Z,99262.53
2023-02-18T01:06:41.520Z,99256.34
2023-02-18T01:09:45.725Z,99255.84
2023-02-18T01:12:48.504Z,99253.88
2023-02-18T01:15:51.401Z,99245.00
2023-02-18T01:18:54.285Z,99242.19
2023-02-18T01:21:57.315Z,99228.31
2023-02-18T01:25:01.448Z,99219.63
2023-02-18T01:28:05.056Z,99218.34
2023-02-18T01:31:08.590Z,99213.00
2023-02-18T01:34:11.556Z,99206.94
2023-02-18T01:37:14.471Z,99195.44
2023-02-18T01:40:20.545Z,99197.09
2023-02-18T01:43:23.593Z,99183.38
2023-02-18T01:46:26.475Z,99177.56
2023-02-18T01:49:30.307Z,99168.50
2023-02-18T01:52:33.540Z,99158.16
2023-02-18T01:55:39.431Z,99154.50
2023-02-18T01:58:42.557Z,99158.31
2023-02-18T02:01:46.123Z,99150.66
2023-02-18T02:04:49.112Z,99153.47
2023-02-18T02:07:55.029Z,99148.44
2023-02-18T02:11:08.812Z,99147.97
2023-02-18T02:14:18.087Z,99126.22
2023-02-18T02:17:28.474Z,99115.53
2023-02-18T02:20:52.285Z,99108.28
2023-02-18T02:24:17.781Z,99110.59
2023-02-18T02:27:26.016Z,99101.72
2023-02-18T02:30:46.550Z,99104.84
2023-02-18T02:34:04.559Z,99099.66
2023-02-18T02:37:14.040Z,99105.94
2023-02-18T02:40:21.717Z,99098.91
2023-02-18T02:43:31.821Z,99099.38
2023-02-18T02:46:38.144Z,99090.53
2023-02-18T02:49:45.216Z,99082.69
2023-02-18T02:52:52.048Z,99082.50
2023-02-18T02:55:56.274Z,99073.47
2023-02-18T02:59:01.854Z,99073.63
2023-02-18T03:02:13.577Z,99075.09
2023-02-18T03:05:19.994Z,99070.22
2023-02-18T03:08:30.833Z,99059.19
2023-02-18T03:11:37.168Z,99046.16
2023-02-18T03:14:45.046Z,99051.25
2023-02-18T03:17:54.873Z,99039.53
2023-02-18T03:21:00.117Z,99047.88
2023-02-18T03:24:08.027Z,99038.19
2023-02-18T03:27:13.074Z,99035.00
2023-02-18T03:30:18.358Z,99020.47
2023-02-18T03:33:24.790Z,99012.13
2023-02-18T03:36:28.281Z,99027.28
2023-02-18T03:39:35.291Z,99014.91
2023-02-18T03:42:38.358Z,99004.19
2023-02-18T03:45:41.161Z,99009.53
2023-02-18T03:48:44.218Z,99006.88
2023-02-18T03:51:47.334Z,99008.03
2023-02-18T03:54:51.990Z,98997.53
2023-02-18T03:57:54.937Z,98990.16
2023-02-18T04:00:57.745Z,98992.81
2023-02-18T04:04:00.703Z,98981.25
2023-02-18T04:07:03.532Z,98969.28
2023-02-18T04:10:08.539Z,98966.66
2023-02-18T04:13:11.528Z,98966.72
2023-02-18T04:16:14.648Z,98960.28
2023-02-18T04:19:17.539Z,98957.88
2023-02-18T04:22:20.334Z,98948.50
2023-02-18T04:25:24.558Z,98943.72
2023-02-18T04:28:27.428Z,98949.72
2023-02-18T04:31:30.278Z,98944.47
2023-02-18T04:34:33.301Z,98924.91
2023-02-18T04:37:36.093Z,98924.94
2023-02-18T04:40:40.259Z,98917.06
2023-02-18T04:43:43.128Z,98918.44
2023-02-18T04:46:45.965Z,98925.78
2023-02-18T04:49:48.789Z,98916.44
2023-02-18T04:52:51.815Z,98902.09
2023-02-18T04:55:56.067Z,98904.44
2023-02-18T04:58:58.862Z,98911.75
2023-02-18T05:02:01.749Z,98908.44
2023-02-18T05:05:04.784Z,98908.28
2023-02-18T05:08:07.965Z,98902.25
2023-02-18T05:11:12.158Z,98892.59
2023-02-18T05:14:14.968Z,98882.75
2023-02-18T05:17:17.779Z,98877.94
2023-02-18T05:20:20.689Z,98862.56
2023-02-18T05:23:24.593Z,98852.25
2023-02-18T05:26:29.972Z,98854.91
2023-02-18T05:29:32.776Z,98833.22
2023-02-18T05:32:35.594Z,98828.03
2023-02-18T05:35:38.430Z,98823.88
2023-02-18T05:38:41.235Z,98802.53
2023-02-18T05:41:45.442Z,98805.00
2023-02-18T05:44:48.361Z,98787.16
2023-02-18T05:47:51.190Z,98790.66
2023-02-18T05:50:55.271Z,98786.16
2023-02-18T05:53:58.077Z,98779.81
2023-02-18T05:57:02.405Z,98764.78
2023-02-18T06:00:06.324Z,98756.97
2023-02-18T06:03:09.203Z,98757.97
2023-02-18T06:06:12.306Z,98744.63
2023-02-18T06:09:15.299Z,98739.75
2023-02-18T06:12:19.545Z,98739.13
2023-02-18T06:15:22.361Z,98728.94
2023-02-18T06:18:25.341Z,98732.63
2023-02-18T06:21:28.178Z,98725.13
2023-02-18T06:24:31.104Z,98718.47
2023-02-18T06:27:35.309Z,98711.13
2023-02-18T06:30:38.171Z,98709.44
2023-02-18T06:33:41.184Z,98691.44
2023-02-18T06:36:45.075Z,98683.94
2023-02-18T06:39:47.956Z,98670.44
2023-02-18T06:42:52.130Z,98654.25
2023-02-18T06:45:54.957Z,98662.78
2023-02-18T06:48:57.770Z,98652.56
2023-02-18T06:52:00.656Z,98639.41
2023-02-18T06:55:03.510Z,98619.41
2023-02-18T06:58:07.673Z,98622.06
2023-02-18T08:04:59.045Z,98452.66
2023-02-18T08:08:01.913Z,98453.88
2023-02-18T08:11:18.053Z,98440.88
2023-02-18T08:14:21.610Z,98438.34
2023-02-18T08:17:24.457Z,98421.50
2023-02-18T08:20:30.612Z,98410.00
2023-02-18T08:23:33.661Z,98399.03
2023-02-18T08:26:36.494Z,98376.13
2023-02-18T08:29:39.350Z,98375.44
2023-02-18T08:32:42.139Z,98359.44
2023-02-18T08:35:47.123Z,98362.13
2023-02-18T08:38:49.984Z,98357.06
2023-02-18T08:41:52.880Z,98351.72
2023-02-18T08:44:55.747Z,98352.09
2023-02-18T08:48:16.026Z,98334.91
2023-02-18T08:51:23.874Z,98328.09
2023-02-18T08:54:26.745Z,98316.22
2023-02-18T08:57:29.621Z,98301.03
2023-02-18T09:00:32.418Z,98287.84
2023-02-18T09:03:35.529Z,98287.34
2023-02-18T09:06:40.317Z,98270.50
2023-02-18T09:09:43.192Z,98264.78
2023-02-18T09:12:46.018Z,98249.88
2023-02-18T09:15:57.197Z,98233.81
2023-02-18T09:19:00.119Z,98227.94
2023-02-18T09:22:04.348Z,98219.94
2023-02-18T09:25:07.493Z,98210.94
2023-02-18T09:28:10.252Z,98204.03
2023-02-18T09:31:14.490Z,98197.22
2023-02-18T09:34:17.425Z,98194.38
2023-02-18T09:37:21.703Z,98186.00
2023-02-18T09:40:27.063Z,98189.69
2023-02-18T09:43:32.324Z,98170.53
2023-02-18T09:46:37.226Z,98181.31
2023-02-18T09:49:41.409Z,98146.19
2023-02-18T09:52:45.720Z,98170.13
2023-02-18T09:55:49.313Z,98147.50
2023-02-18T09:58:52.661Z,98135.13
2023-02-18T10:01:57.209Z,98120.44
2023-02-18T10:05:00.076Z,98105.63
2023-02-18T10:08:05.930Z,98099.72
2023-02-18T10:11:13.762Z,98095.69
2023-02-18T10:14:16.968Z,98083.53
2023-02-18T10:17:20.430Z,98078.38
2023-02-18T10:20:25.034Z,98072.84
2023-02-18T10:23:30.554Z,98075.53
2023-02-18T10:26:35.272Z,98065.72
2023-02-18T10:29:38.106Z,98057.88
2023-02-18T10:32:44.191Z,98064.03
2023-02-18T10:35:49.986Z,98058.88
2023-02-18T10:39:14.907Z,98063.69
2023-02-18T10:42:25.087Z,98040.94
2023-02-18T10:45:33.385Z,98022.16
2023-02-18T10:48:45.803Z,98016.66
2023-02-18T10:51:51.725Z,97990.44
2023-02-18T10:55:04.529Z,97980.56
2023-02-18T10:58:25.343Z,97965.03
2023-02-18T11:01:28.301Z,97967.63
2023-02-18T11:04:36.584Z,97968.63
2023-02-18T11:07:49.889Z,97953.34
2023-02-18T11:10:54.420Z,97943.50
2023-02-18T11:13:57.994Z,97944.78
2023-02-18T11:17:08.987Z,97946.41
2023-02-18T11:20:22.127Z,97957.72
2023-02-18T11:23:25.831Z,97940.22
2023-02-18T11:26:32.055Z,97933.78
2023-02-18T11:29:35.767Z,97924.69
2023-02-18T11:32:39.488Z,97918.69
2023-02-18T11:35:49.712Z,97912.72
2023-02-18T11:38:54.204Z,97914.38
2023-02-18T11:41:59.435Z,97909.50
2023-02-18T11:45:05.165Z,97904.91
2023-02-18T11:48:09.588Z,97903.44
2023-02-18T11:51:16.857Z,97884.69
2023-02-18T11:54:24.156Z,97883.00
2023-02-18T11:57:28.985Z,97883.41
2023-02-18T12:00:38.358Z,97869.69
2023-02-18T12:03:45.144Z,97875.41
2023-02-18T12:06:51.812Z,97875.78
2023-02-18T12:09:57.486Z,97871.72
2023-02-18T12:13:04.935Z,97866.50
2023-02-18T12:16:12.917Z,97873.94
2023-02-18T12:19:26.206Z,97863.63
2023-02-18T12:22:35.275Z,97873.00
2023-02-18T12:25:42.241Z,97859.59
2023-02-18T12:28:55.409Z,97847.16
2023-02-18T12:32:05.218Z,97859.50
2023-02-18T12:35:27.003Z,97837.53
2023-02-18T12:38:55.154Z,97829.44
2023-02-18T12:42:09.749Z,97825.88
2023-02-18T12:45:29.728Z,97826.63
2023-02-18T12:48:44.691Z,97824.22
2023-02-18T12:51:56.232Z,97822.66
2023-02-18T12:55:18.514Z,97821.63
2023-02-18T12:58:28.795Z,97813.75
2023-02-18T13:01:45.144Z,97803.66
2023-02-18T13:04:54.141Z,97798.97
2023-02-18T13:08:04.517Z,97803.47
2023-02-18T13:11:25.303Z,97804.81
2023-02-18T13:14:30.852Z,97798.31
2023-02-18T13:17:38.106Z,97793.44
2023-02-18T13:20:43.353Z,97787.94
2023-02-18T13:23:50.086Z,97795.28
2023-02-18T13:26:56.514Z,97792.72
2023-02-18T13:30:03.510Z,97790.41
2023-02-18T13:33:12.250Z,97797.84
2023-02-18T13:36:22.172Z,97791.25
2023-02-18T13:39:25.976Z,97788.09
2023-02-18T13:42:35.429Z,97783.50
2023-02-18T13:45:40.692Z,97787.25
2023-02-18T13:48:46.769Z,97782.47
2023-02-18T13:51:51.232Z,97775.94
2023-02-18T13:54:55.783Z,97782.16
2023-02-18T13:58:00.982Z,97779.88
2023-02-18T14:01:05.568Z,97769.47
2023-02-18T14:04:23.228Z,97775.38
2023-02-18T14:07:46.619Z,97774.16
2023-02-18T14:11:24.996Z,97766.34
2023-02-18T14:14:45.650Z,97766.28
2023-02-18T14:17:49.755Z,97768.06
2023-02-18T14:20:52.743Z,97765.66
2023-02-18T14:24:00.385Z,97771.38
2023-02-18T14:27:15.766Z,97771.19
2023-02-18T14:30:20.477Z,97769.34
2023-02-18T14:33:23.451Z,97762.53
2023-02-18T14:36:31.275Z,97757.72
2023-02-18T14:39:39.616Z,97762.66
2023-02-18T14:42:49.138Z,97763.69
2023-02-18T14:46:02.068Z,97755.34
2023-02-18T14:49:18.746Z,97758.63
2023-02-18T14:52:24.560Z,97753.47
2023-02-18T14:55:28.867Z,97752.47
2023-02-18T14:58:36.137Z,97765.81
2023-02-18T15:01:40.446Z,97757.59
2023-02-18T15:04:43.329Z,97753.97
2023-02-18T15:07:56.505Z,97750.03
2023-02-18T15:11:00.029Z,97749.03
2023-02-18T15:14:05.473Z,97752.75
2023-02-18T15:17:12.834Z,97757.66
2023-02-18T15:20:16.830Z,97754.44
2023-02-18T15:23:19.728Z,97755.47
2023-02-18T15:26:22.707Z,97744.94
2023-02-18T15:29:27.765Z,97763.06
2023-02-18T15:32:30.659Z,97754.28
2023-02-18T15:35:34.085Z,97767.84
2023-02-18T15:38:41.626Z,97759.84
2023-02-18T15:41:44.508Z,97763.94
2023-02-18T15:44:49.978Z,97775.84
2023-02-18T15:47:54.801Z,97772.31
2023-02-18T15:51:08.100Z,97768.47
2023-02-18T15:54:19.102Z,97768.47
2023-02-18T15:57:25.545Z,97774.06
2023-02-18T16:00:31.604Z,97777.09
2023-02-18T16:03:45.371Z,97776.72
2023-02-18T16:06:50.245Z,97779.19
2023-02-18T16:10:07.374Z,97774.47
2023-02-18T16:13:14.828Z,97776.28
2023-02-18T16:16:25.986Z,97781.47
2023-02-18T16:19:28.875Z,97791.25
2023-02-18T16:22:35.097Z,97786.59
2023-02-18T16:25:42.505Z,97791.56
2023-02-18T16:28:47.139Z,97790.75
2023-02-18T16:31:51.430Z,97785.41
2023-02-18T16:34:54.396Z,97794.03
2023-02-18T16:37:57.809Z,97788.72
2023-02-18T16:41:00.655Z,97783.38
2023-02-18T16:44:03.412Z,97790.00
2023-02-18T16:47:07.874Z,97784.59
2023-02-18T16:50:15.491Z,97792.41
2023-02-18T16:53:18.396Z,97785.06
2023-02-18T16:56:23.346Z,97787.88
2023-02-18T16:59:26.256Z,97790.34
2023-02-18T17:02:31.952Z,97790.81
2023-02-18T17:05:39.309Z,97789.59
2023-02-18T17:08:42.239Z,97798.16
2023-02-18T17:11:45.761Z,97794.44
2023-02-18T17:14:48.622Z,97792.78
2023-02-18T17:17:52.833Z,97796.97
2023-02-18T17:20:57.182Z,97803.13
2023-02-18T17:24:00.041Z,97804.34
2023-02-18T17:27:02.840Z,97804.16
2023-02-18T17:30:05.945Z,97812.84
2023-02-18T17:33:13.250Z,97806.56
2023-02-18T17:36:16.120Z,97812.28
2023-02-18T17:39:19.567Z,97806.19
2023-02-18T17:42:22.426Z,97803.66
2023-02-18T17:45:28.807Z,97814.91
2023-02-18T17:48:33.300Z,97814.19
2023-02-18T17:51:37.014Z,97815.84
2023-02-18T17:54:39.784Z,97805.75
2023-02-18T17:57:42.619Z,97816.97
2023-02-18T18:00:46.347Z,97814.97
2023-02-18T18:03:50.629Z,97821.34
2023-02-18T18:06:53.709Z,97810.94
2023-02-18T18:09:56.628Z,97813.34
2023-02-18T18:12:59.997Z,97806.91
2023-02-18T18:16:02.789Z,97811.13
2023-02-18T18:19:06.951Z,97807.13
2023-02-18T18:22:09.968Z,97811.50
2023-02-18T18:25:18.404Z,97808.91
2023-02-18T18:28:21.340Z,97814.13
2023-02-18T18:31:24.401Z,97802.47
2023-02-18T18:34:28.689Z,97804.09
2023-02-18T18:37:31.532Z,97797.81
2023-02-18T18:40:34.837Z,97800.91
2023-02-18T18:43:39.844Z,97806.72
2023-02-18T18:46:42.652Z,97812.47
2023-02-18T18:49:46.806Z,97808.78
2023-02-18T18:52:50.649Z,97811.44
2023-02-18T18:55:54.774Z,97808.41
2023-02-18T18:58:57.586Z,97814.38
2023-02-18T19:02:00.409Z,97815.66
2023-02-18T19:05:05.157Z,97811.97
2023-02-18T19:08:08.602Z,97822.59
2023-02-18T19:11:12.504Z,97807.41
2023-02-18T19:14:15.381Z,97805.56
2023-02-18T19:17:18.228Z,97805.94
2023-02-18T19:20:24.335Z,97801.28
2023-02-18T19:23:27.169Z,97812.22
2023-02-18T19:26:30.019Z,97810.69
2023-02-18T19:29:32.836Z,97803.50
2023-02-18T19:32:35.923Z,97817.72
2023-02-18T19:35:41.848Z,97811.84
2023-02-18T19:38:45.603Z,97806.91
2023-02-18T19:41:48.474Z,97803.06
2023-02-18T19:44:54.616Z,97804.59
2023-02-18T19:47:58.056Z,97806.03
2023-02-18T19:51:03.966Z,97796.53
2023-02-18T19:54:06.876Z,97798.13
2023-02-18T19:57:09.685Z,97797.88
2023-02-18T20:00:14.350Z,97793.72
2023-02-18T20:03:17.201Z,97800.28
2023-02-18T20:06:22.280Z,97806.00
2023-02-18T20:09:25.137Z,97804.94
2023-02-18T20:12:28.021Z,97803.91
2023-02-18T20:15:30.805Z,97807.53
2023-02-18T20:18:33.607Z,97809.53
2023-02-18T20:21:37.752Z,97809.28
2023-02-18T20:24:40.954Z,97809.00
2023-02-18T20:27:58.436Z,97817.00
2023-02-18T20:31:06.582Z,97818.03
2023-02-18T20:34:09.955Z,97817.47
2023-02-18T20:37:14.113Z,97810.75
2023-02-18T20:40:17.184Z,97811.34
2023-02-18T20:43:20.035Z,97810.19
2023-02-18T20:46:22.861Z,97809.88
2023-02-18T20:49:25.699Z,97818.91
2023-02-18T20:52:29.941Z,97824.31
2023-02-18T20:55:32.742Z,97818.16
2023-02-18T20:58:35.995Z,97828.25
2023-02-18T21:01:40.956Z,97819.03
2023-02-18T21:04:45.023Z,97822.72
2023-02-18T21:07:49.285Z,97826.84
2023-02-18T21:10:52.736Z,97824.78
2023-02-18T21:13:56.762Z,97824.78
2023-02-18T21:16:59.633Z,97825.31
2023-02-18T21:20:02.382Z,97828.38
2023-02-18T21:23:06.588Z,97827.72
2023-02-18T21:26:11.891Z,97831.47
2023-02-18T21:29:17.024Z,97835.03
2023-02-18T21:32:20.132Z,97842.97
2023-02-18T21:35:24.111Z,97845.09
2023-02-18T21:38:28.291Z,97836.88
2023-02-18T21:41:31.561Z,97847.09
2023-02-18T21:44:42.394Z,97842.22
2023-02-18T21:47:45.899Z,97837.69
2023-02-18T21:50:48.761Z,97842.50
2023-02-18T21:53:52.932Z,97846.34
2023-02-18T21:56:56.641Z,97851.44
2023-02-18T22:00:03.740Z,97853.72
2023-02-18T22:03:11.188Z,97852.03
2023-02-18T22:06:14.364Z,97860.44
2023-02-18T22:09:18.596Z,97851.59
2023-02-18T22:12:21.857Z,97848.72
2023-02-18T22:15:24.721Z,97853.19
2023-02-18T22:18:27.481Z,97850.31
2023-02-18T22:21:30.366Z,97850.94
2023-02-18T22:24:34.877Z,97844.50
2023-02-18T22:27:37.694Z,97845.81
2023-02-18T22:30:40.525Z,97847.84
2023-02-18T22:33:43.458Z,97838.78
2023-02-18T22:36:46.296Z,97840.84
2023-02-18T22:39:51.596Z,97852.41
2023-02-18T22:42:54.417Z,97851.69
2023-02-18T22:45:57.233Z,97843.16
2023-02-18T22:49:00.278Z,97856.09
2023-02-18T22:52:03.090Z,97843.97
2023-02-18T22:55:07.721Z,97846.69
2023-02-18T22:58:10.498Z,97842.19
2023-02-18T23:01:19.673Z,97849.88
2023-02-18T23:04:22.826Z,97850.34
2023-02-18T23:07:26.140Z,97853.16
2023-02-18T23:10:30.370Z,97857.53
2023-02-18T23:13:33.587Z,97859.31
2023-02-18T23:16:56.789Z,97861.59
2023-02-18T23:19:59.594Z,97868.41
2023-02-18T23:23:02.389Z,97880.75
2023-02-18T23:26:07.079Z,97875.59
2023-02-18T23:29:09.999Z,97884.66
2023-02-18T23:32:12.814Z,97878.66
2023-02-18T23:35:15.755Z,97879.66
2023-02-18T23:38:18.564Z,97892.00
2023-02-18T23:41:23.072Z,97892.00
2023-02-18T23:44:26.720Z,97892.00
2023-02-18T23:47:29.491Z,97899.56
2023-02-18T23:50:32.303Z,97891.03
2023-02-18T23:53:36.176Z,97887.75
2023-02-18T23:56:40.804Z,97883.03
2023-02-18T23:59:43.613Z,97876.22
